KOLV/OLV METAR and TAF weather

Enter ICAO airport designator
Station Type Date Time Source
KOLV METAR 2019/06/26 19:50 UTC NOAA

KOLV 261950Z 23010KT 10SM SCT035 30/20 A3013


Station Type Date Time Source
KOLV Decoded METAR 2019/06/26 19:50 UTC NOAA

Olive Branch, Olive Branch Airport, MS, United States (KOLV) 34-58-44N 089-47-13W
Jun 26, 2019 - 03:50 PM EDT / 2019.06.26 1950 UTC
Wind: from the SW (230 degrees) at 12 MPH (10 KT):0
Visibility: 10 mile(s):0
Sky conditions: partly cloudy
Temperature: 86 F (30 C)
Dew Point: 68 F (20 C)
Relative Humidity: 55%
Pressure (altimeter): 30.13 in. Hg (1020 hPa)
ob: KOLV 261950Z 23010KT 10SM SCT035 30/20 A3013
cycle: 20

Station Type Date Time Source
KOLV TAF UTC NOAA

Error!

Example: see airport list